Saturday, December 15, 2018, 10:59 PM EST
Back to Local

KAFN, Jaffrey Muni-silver Ranch

Location: Jaffrey, NH, United States Lat: 42.8
Local Time: 10:59 PM EST ( 3:59 GMT) Lon: -72
Time Zone: US/Eastern Elev: 1040 ft

Show me the last for .
Show Decoded

2018-12-15 21:52 METAR KAFN 160252Z AUTO 00000KT 10SM CLR M02/M02 A3025 RMK AO2 SLP261 T10171022
                 51030 =
2018-12-15 20:52 METAR KAFN 160152Z AUTO 00000KT 10SM CLR M01/M02 A3023 RMK AO2 SLP252 T10111017
                 =
2018-12-15 19:52 METAR KAFN 160052Z AUTO 00000KT 10SM CLR 02/M01 A3021 RMK AO2 SLP245 T00171011 =
2018-12-15 18:52 METAR KAFN 152352Z AUTO 00000KT 10SM CLR 03/M01 A3016 RMK AO2 SLP226 T00281011
                 10094 20028 58001 =
2018-12-15 17:52 METAR KAFN 152252Z AUTO VRB03KT 10SM CLR 04/00 A3017 RMK AO2 SLP230 T00390000 =
2018-12-15 16:52 METAR KAFN 152152Z AUTO 00000KT 10SM CLR 04/01 A3017 RMK AO2 SLP229 T00440011 =
2018-12-15 15:52 METAR KAFN 152052Z AUTO 00000KT 10SM CLR 04/01 A3016 RMK AO2 SLP227 T00390011
                 53008 =
2018-12-15 14:52 METAR KAFN 151952Z AUTO 00000KT 10SM CLR 06/02 A3015 RMK AO2 SLP221 T00610017 =
2018-12-15 13:52 METAR KAFN 151852Z AUTO 32005KT 10SM CLR 08/01 A3014 RMK AO2 SLP216 T00830011 =
2018-12-15 12:52 METAR KAFN 151752Z AUTO 00000KT 10SM CLR 09/02 A3014 RMK AO2 SLP216 T00890017
                 10094 20017 56010 =
2018-12-15 11:52 METAR KAFN 151652Z AUTO 29003KT 10SM CLR 09/02 A3014 RMK AO2 SLP216 T00890022 =
2018-12-15 10:52 METAR KAFN 151552Z AUTO 19007KT 10SM CLR 08/04 A3016 RMK AO2 SLP223 T00830039 =
2018-12-15 09:52 METAR KAFN 151452Z AUTO 18004KT 10SM CLR 03/03 A3017 RMK AO2 SLP229 T00330033
                 53004 =
2018-12-15 08:52 METAR KAFN 151352Z AUTO 19004KT 10SM CLR 03/03 A3016 RMK AO2 SLP227 T00280028 =
2018-12-15 07:52 METAR KAFN 151252Z AUTO 00000KT 6SM BR CLR 02/02 A3016 RMK AO2 SLP226 T00170017
                 =
2018-12-15 07:47 METAR KAFN 151247Z AUTO 00000KT 5SM BR FEW001 02/02 A3015 RMK AO2 =
2018-12-15 06:52 METAR KAFN 151152Z AUTO 00000KT 10SM OVC048 04/04 A3014 RMK AO2 SLP220 T00440044
                 10056 20044 53005 =
2018-12-15 05:52 METAR KAFN 151052Z AUTO 16003KT 10SM CLR 05/05 A3012 RMK AO2 SLP212 T00500050 =
2018-12-15 04:52 METAR KAFN 150952Z AUTO 17005KT 10SM CLR 05/04 A3012 RMK AO2 SLP212 T00500044 =
2018-12-15 04:02 METAR KAFN 150902Z AUTO VRB03KT 10SM SCT006 05/05 A3012 RMK AO2 T00500050 =
2018-12-15 03:52 METAR KAFN 150852Z AUTO 21005KT 10SM BKN006 05/05 A3012 RMK AO2 SLP214 T00500050
                 58006 =
2018-12-15 02:52 METAR KAFN 150752Z AUTO VRB05KT 10SM OVC006 06/06 A3014 RMK AO2 SLP219 T00560056
                 =
2018-12-15 02:36 METAR KAFN 150736Z AUTO 22007KT 10SM OVC006 06/06 A3014 RMK AO2 CIG 005V009
                 T00560056 =
2018-12-15 02:08 METAR KAFN 150708Z AUTO 21007KT 10SM OVC005 06/06 A3013 RMK AO2 T00560056 =
2018-12-15 01:52 METAR KAFN 150652Z AUTO 23007KT 9SM OVC004 06/06 A3014 RMK AO2 SLP218 T00560056
                 =
2018-12-15 01:07 METAR KAFN 150607Z AUTO 21007KT 4SM BR OVC002 04/04 A3014 RMK AO2 T00440044 =
2018-12-15 00:52 METAR KAFN 150552Z AUTO 20008KT 2 1/2SM BR OVC002 04/04 A3014 RMK AO2 SLP220
                 T00440044 10050 20039 56022 =
2018-12-15 00:33 METAR KAFN 150533Z AUTO VRB06KT 2SM BR OVC002 04/04 A3016 RMK AO2 T00440044 =
2018-12-15 00:06 METAR KAFN 150506Z AUTO 23008KT 1 3/4SM BR OVC002 05/05 A3016 RMK AO2 T00500050
                 =
2018-12-14 23:52 METAR KAFN 150452Z AUTO VRB06G15KT 2SM BR OVC002 04/04 A3016 RMK AO2 SLP228
                 T00440044 400441033 =

Support USWX by starting your Amazon purchase here.